Time;durP1;ratioP1;P1;durP2;ratioP2;P2;SDS_P1;SDS_P2;PMS_P1;PMS_P2;Temp;Humidity;BMP_temperature;BMP_pressure;BME280_temperature;BME280_humidity;BME280_pressure;Samples;Min_cycle;Max_cycle;Signal;HPM_P1;HPM_P2
2022/07/07 00:02:15;;;;;;;7.13;3.30;;;;;;;18.63;57.57;93216.81;2068339;69;20182;-75
2022/07/07 00:04:40;;;;;;;5.43;2.80;;;;;;;18.59;58.13;93213.81;2071710;69;20279;-75
2022/07/07 00:07:06;;;;;;;4.07;3.30;;;;;;;18.67;58.00;93206.31;2071527;69;20144;-76
2022/07/07 00:09:32;;;;;;;7.00;3.47;;;;;;;18.58;58.34;93206.66;2071628;69;20148;-75
2022/07/07 00:11:58;;;;;;;5.63;3.20;;;;;;;18.52;58.91;93210.72;2070668;69;20274;-75
2022/07/07 00:14:24;;;;;;;4.88;3.00;;;;;;;18.47;59.33;93211.22;2071740;69;20239;-75
2022/07/07 00:16:50;;;;;;;5.80;3.20;;;;;;;18.47;59.22;93216.94;2071549;69;20147;-76
2022/07/07 00:19:15;;;;;;;5.03;3.03;;;;;;;18.44;59.10;93215.38;2071712;69;20176;-75
2022/07/07 00:21:41;;;;;;;6.35;2.83;;;;;;;18.54;58.36;93216.50;2071692;69;20180;-75
2022/07/07 00:24:07;;;;;;;8.07;3.50;;;;;;;18.33;59.31;93219.22;2071662;69;20247;-75
2022/07/07 00:26:33;;;;;;;6.30;3.35;;;;;;;18.32;59.36;93218.47;2071836;69;20148;-76
2022/07/07 00:29:00;;;;;;;5.80;3.50;;;;;;;18.20;59.93;93215.88;2071826;69;20148;-76
2022/07/07 00:31:26;;;;;;;4.45;3.30;;;;;;;18.24;59.54;93209.59;2071557;69;20188;-75
2022/07/07 00:33:52;;;;;;;10.32;3.90;;;;;;;18.11;60.23;93208.38;2071893;69;20184;-74
2022/07/07 00:36:18;;;;;;;5.40;3.10;;;;;;;18.14;59.67;93209.16;2071792;69;20203;-77
2022/07/07 00:38:43;;;;;;;4.85;3.58;;;;;;;18.26;58.80;93209.66;2071906;69;20179;-75
2022/07/07 00:41:09;;;;;;;5.55;3.20;;;;;;;18.25;59.10;93208.22;2071828;69;20140;-76
2022/07/07 00:43:40;;;;;;;6.78;2.90;;;;;;;18.18;59.09;93212.19;2071374;69;20148;-75
2022/07/07 00:46:07;;;;;;;5.10;2.75;;;;;;;18.17;59.43;93214.31;2068442;69;20143;-74
2022/07/07 00:48:36;;;;;;;4.82;3.30;;;;;;;18.08;59.26;93211.78;2071721;69;20164;-75
2022/07/07 00:51:04;;;;;;;4.35;3.35;;;;;;;17.89;59.87;93213.13;2071849;69;20263;-75
2022/07/07 00:53:30;;;;;;;5.40;3.40;;;;;;;18.00;59.54;93215.75;2071883;69;20742;-76
2022/07/07 00:56:00;;;;;;;8.77;3.40;;;;;;;17.72;60.33;93215.25;2071966;69;20152;-76
2022/07/07 00:58:26;;;;;;;7.38;3.38;;;;;;;17.72;60.34;93223.81;2071483;69;20159;-76
2022/07/07 01:00:54;;;;;;;4.43;3.00;;;;;;;17.72;60.55;93209.56;2068753;69;20163;-76
2022/07/07 01:03:29;;;;;;;3.75;3.10;;;;;;;17.75;60.01;93224.66;2071764;69;20280;-76
2022/07/07 01:06:02;;;;;;;5.50;3.40;;;;;;;17.80;58.89;93211.34;2071334;69;20140;-74
2022/07/07 01:08:33;;;;;;;4.45;3.10;;;;;;;17.80;59.71;93206.38;2072143;69;20164;-77
2022/07/07 01:10:59;;;;;;;7.53;3.50;;;;;;;17.41;61.17;93215.31;2071457;69;20128;-76
2022/07/07 01:13:27;;;;;;;6.75;3.40;;;;;;;17.66;60.31;93214.28;2071727;69;20259;-75
2022/07/07 01:16:09;;;;;;;6.32;3.53;;;;;;;17.51;61.04;93216.53;2071779;69;20156;-76
2022/07/07 01:18:35;;;;;;;6.18;3.38;;;;;;;17.53;60.70;93210.19;2068550;69;20326;-75
2022/07/07 01:21:05;;;;;;;6.20;3.55;;;;;;;17.58;60.57;93211.81;2071643;69;20658;-76
2022/07/07 01:23:31;;;;;;;8.80;3.60;;;;;;;17.22;61.55;93213.78;2071554;69;20206;-75
2022/07/07 01:25:57;;;;;;;4.88;3.13;;;;;;;17.49;59.94;93218.53;2071668;69;20525;-74
2022/07/07 01:28:22;;;;;;;6.65;3.30;;;;;;;17.43;60.30;93207.63;2071766;69;20227;-77
2022/07/07 01:30:49;;;;;;;6.35;3.55;;;;;;;17.48;60.39;93208.53;2071316;69;20191;-76
2022/07/07 01:33:15;;;;;;;7.53;3.50;;;;;;;17.43;60.70;93204.78;2071942;69;20132;-75
2022/07/07 01:35:41;;;;;;;5.45;3.47;;;;;;;17.45;60.50;93198.44;2068590;69;20631;-76
2022/07/07 01:38:07;;;;;;;5.13;3.33;;;;;;;17.47;60.65;93199.25;2068409;69;20217;-76
2022/07/07 01:40:32;;;;;;;4.10;3.45;;;;;;;17.42;60.42;93200.47;2071954;69;20175;-76
2022/07/07 01:42:58;;;;;;;4.90;3.28;;;;;;;17.42;60.54;93197.63;2071842;69;20137;-75
2022/07/07 01:45:23;;;;;;;6.82;3.58;;;;;;;17.35;60.83;93207.25;2071951;69;20597;-75
2022/07/07 01:47:49;;;;;;;6.20;3.40;;;;;;;17.48;59.91;93205.69;2071855;69;20152;-75
2022/07/07 01:50:15;;;;;;;6.28;2.92;;;;;;;17.25;60.91;93203.97;2071872;69;20582;-76
2022/07/07 01:52:40;;;;;;;5.00;3.05;;;;;;;17.39;59.46;93201.03;2071564;69;20156;-75
2022/07/07 01:55:07;;;;;;;4.90;3.47;;;;;;;17.20;60.83;93205.19;2071753;69;20152;-75
2022/07/07 01:57:32;;;;;;;8.15;3.80;;;;;;;17.11;61.29;93204.09;2071865;69;20148;-75
2022/07/07 01:59:58;;;;;;;4.68;3.30;;;;;;;17.24;60.71;93203.25;2071913;69;20144;-76
2022/07/07 02:02:24;;;;;;;6.00;3.70;;;;;;;17.13;61.29;93209.13;2071821;69;20144;-75
2022/07/07 02:04:49;;;;;;;5.82;3.70;;;;;;;17.23;60.57;93201.78;2071754;69;20694;-75
2022/07/07 02:07:15;;;;;;;6.00;3.40;;;;;;;17.10;61.02;93207.59;2071358;69;20222;-75
2022/07/07 02:09:40;;;;;;;6.32;3.67;;;;;;;17.04;60.92;93210.88;2071634;69;20150;-74
2022/07/07 02:12:07;;;;;;;6.80;3.50;;;;;;;17.01;61.49;93217.84;2068323;69;20235;-74
2022/07/07 02:14:33;;;;;;;5.80;3.47;;;;;;;17.00;61.43;93214.28;2071891;69;20144;-76
2022/07/07 02:16:58;;;;;;;5.72;3.80;;;;;;;16.89;61.71;93220.88;2071866;69;20144;-74
2022/07/07 02:19:24;;;;;;;6.38;4.03;;;;;;;16.84;62.08;93224.91;2071819;69;20149;-74
2022/07/07 02:21:49;;;;;;;6.05;3.80;;;;;;;16.72;62.53;93225.09;2071626;69;20225;-74
2022/07/07 02:24:15;;;;;;;5.82;3.45;;;;;;;16.66;62.52;93230.44;2071611;69;20152;-74
2022/07/07 02:26:41;;;;;;;5.43;3.65;;;;;;;16.83;61.90;93229.13;2071699;69;20519;-76
2022/07/07 02:29:06;;;;;;;6.47;3.95;;;;;;;16.83;61.83;93229.13;2071778;69;20140;-73
2022/07/07 02:31:32;;;;;;;4.60;3.45;;;;;;;16.75;62.01;93232.31;2068469;69;20172;-74
2022/07/07 02:33:58;;;;;;;6.13;3.60;;;;;;;16.77;61.73;93228.84;2071850;69;20517;-73
2022/07/07 02:36:24;;;;;;;4.47;3.85;;;;;;;16.84;61.64;93232.72;2071767;69;20201;-74
2022/07/07 02:38:50;;;;;;;6.68;3.80;;;;;;;16.61;62.55;93225.22;2071731;69;20231;-75
2022/07/07 02:41:16;;;;;;;5.63;3.40;;;;;;;16.61;62.72;93211.00;2068429;69;20243;-75
2022/07/07 02:43:42;;;;;;;5.28;4.07;;;;;;;16.51;63.01;93219.81;2068251;69;20170;-75
2022/07/07 02:46:07;;;;;;;5.28;4.00;;;;;;;16.44;63.22;93213.09;2068591;69;20172;-74
2022/07/07 02:48:33;;;;;;;7.25;4.38;;;;;;;16.51;63.45;93214.13;2071810;69;20590;-75
2022/07/07 02:50:59;;;;;;;4.47;3.78;;;;;;;16.60;62.75;93215.22;2071632;69;20643;-74
2022/07/07 02:53:24;;;;;;;8.38;3.63;;;;;;;16.62;62.55;93210.38;2071669;69;20147;-74
2022/07/07 02:55:50;;;;;;;5.25;3.50;;;;;;;16.61;62.41;93208.16;2071717;69;20191;-75
2022/07/07 02:58:19;;;;;;;7.28;3.50;;;;;;;16.59;62.54;93211.66;2071679;69;20144;-75
2022/07/07 03:00:47;;;;;;;6.30;3.72;;;;;;;16.62;62.47;93212.47;2071646;69;20217;-74
2022/07/07 03:03:13;;;;;;;5.03;3.55;;;;;;;16.48;62.94;93213.28;2068291;69;20227;-74
2022/07/07 03:05:38;;;;;;;7.28;3.92;;;;;;;16.16;63.95;93217.41;2068336;69;20200;-74
2022/07/07 03:08:05;;;;;;;6.60;3.95;;;;;;;16.42;63.11;93226.47;2071595;69;20153;-74
2022/07/07 03:10:30;;;;;;;4.97;3.70;;;;;;;16.35;63.44;93219.03;2071386;69;20141;-75
2022/07/07 03:12:56;;;;;;;6.45;3.92;;;;;;;16.29;63.27;93221.56;2071649;69;20151;-75
2022/07/07 03:15:22;;;;;;;5.93;3.90;;;;;;;16.39;63.10;93227.75;2071648;69;20230;-74
2022/07/07 03:17:52;;;;;;;5.00;3.80;;;;;;;16.41;62.60;93225.75;2068197;69;20155;-75
2022/07/07 03:20:18;;;;;;;6.60;4.28;;;;;;;16.34;63.25;93221.13;2071718;69;20156;-75
2022/07/07 03:22:44;;;;;;;7.50;5.47;;;;;;;16.34;63.14;93226.81;2071380;69;20231;-75
2022/07/07 03:25:11;;;;;;;10.20;5.63;;;;;;;16.42;62.82;93217.94;2071565;69;20140;-74
2022/07/07 03:27:38;;;;;;;8.23;6.00;;;;;;;16.08;64.26;93222.69;2071735;69;20176;-75
2022/07/07 03:30:04;;;;;;;7.30;6.32;;;;;;;16.25;63.61;93213.59;2071634;69;20194;-73
2022/07/07 03:32:30;;;;;;;8.40;5.85;;;;;;;16.30;63.13;93214.53;2071585;69;20581;-75
2022/07/07 03:34:56;;;;;;;9.15;4.55;;;;;;;16.29;63.20;93218.75;2071607;69;20215;-74
2022/07/07 03:37:22;;;;;;;5.47;4.00;;;;;;;16.30;63.11;93211.69;2068133;69;20607;-74
2022/07/07 03:39:48;;;;;;;4.93;4.20;;;;;;;16.07;64.37;93212.72;2071624;69;20221;-75
2022/07/07 03:42:13;;;;;;;6.40;3.95;;;;;;;16.06;63.81;93211.97;2071576;69;20155;-75
2022/07/07 03:44:39;;;;;;;8.07;4.75;;;;;;;15.62;65.52;93216.16;2072340;69;20651;-74
2022/07/07 03:47:05;;;;;;;8.38;4.30;;;;;;;15.93;64.13;93212.75;2072803;69;20156;-73
2022/07/07 03:49:30;;;;;;;8.02;4.30;;;;;;;15.95;64.38;93215.72;2069997;69;20144;-74
2022/07/07 03:51:57;;;;;;;4.80;4.15;;;;;;;15.93;64.67;93213.47;2072733;69;20221;-75
2022/07/07 03:54:22;;;;;;;4.90;4.20;;;;;;;15.99;64.46;93218.75;2072712;69;20220;-75
2022/07/07 03:56:48;;;;;;;6.15;4.47;;;;;;;16.06;64.09;93228.28;2072979;69;20235;-73
2022/07/07 03:59:13;;;;;;;7.78;4.30;;;;;;;16.08;64.07;93229.13;2069199;69;20140;-74
2022/07/07 04:01:44;;;;;;;10.23;3.88;;;;;;;16.05;64.13;93227.56;2072029;69;20152;-75
2022/07/07 04:04:11;;;;;;;5.75;3.80;;;;;;;15.96;64.60;93229.25;2069089;69;20144;-75
2022/07/07 04:06:37;;;;;;;7.47;3.60;;;;;;;16.04;64.41;93219.69;2071869;69;20649;-75
2022/07/07 04:09:03;;;;;;;7.05;3.90;;;;;;;16.03;64.18;93224.59;2071338;69;20204;-74
2022/07/07 04:11:28;;;;;;;7.28;4.10;;;;;;;16.06;64.01;93229.03;2068374;69;20152;-74
2022/07/07 04:13:54;;;;;;;8.88;4.22;;;;;;;16.02;64.32;93220.28;2071946;69;20619;-73
2022/07/07 04:16:20;;;;;;;6.25;4.05;;;;;;;16.15;63.59;93230.16;2071565;69;20301;-75
2022/07/07 04:18:46;;;;;;;9.63;4.15;;;;;;;16.20;63.74;93224.03;2071708;69;20521;-74
2022/07/07 04:21:11;;;;;;;7.80;3.90;;;;;;;16.26;63.89;93232.09;2071615;69;20519;-75
2022/07/07 04:23:37;;;;;;;5.93;4.15;;;;;;;16.19;64.57;93224.66;2071707;69;20630;-75
2022/07/07 04:26:03;;;;;;;6.43;4.13;;;;;;;16.21;64.25;93227.59;2068358;69;20160;-74
2022/07/07 04:28:29;;;;;;;6.18;3.90;;;;;;;16.21;65.02;93221.91;2071535;69;20152;-75
2022/07/07 04:30:55;;;;;;;8.68;4.35;;;;;;;16.20;64.50;93217.63;2071580;69;20610;-74
2022/07/07 04:33:21;;;;;;;4.03;3.72;;;;;;;16.23;65.70;93231.28;2072024;69;20159;-75
2022/07/07 04:35:46;;;;;;;5.68;3.80;;;;;;;16.32;64.50;93232.41;2072179;69;20216;-75
2022/07/07 04:38:13;;;;;;;5.45;3.80;;;;;;;16.46;63.66;93226.66;2065838;69;20143;-75
2022/07/07 04:40:39;;;;;;;11.27;5.10;;;;;;;15.49;67.16;93221.22;2071986;69;20152;-75
2022/07/07 04:43:05;;;;;;;9.05;5.45;;;;;;;15.99;65.60;93230.84;2072273;69;20191;-75
2022/07/07 04:45:31;;;;;;;8.80;4.85;;;;;;;16.26;63.72;93221.50;2072136;69;20598;-75
2022/07/07 04:47:57;;;;;;;5.93;4.47;;;;;;;16.18;65.28;93221.09;2071935;69;20137;-74
2022/07/07 04:50:22;;;;;;;10.07;4.38;;;;;;;16.26;64.92;93209.38;2072017;69;20278;-75
2022/07/07 04:52:48;;;;;;;7.35;4.20;;;;;;;16.39;64.34;93205.00;2068458;69;20163;-74
2022/07/07 04:55:14;;;;;;;9.10;3.90;;;;;;;16.36;63.90;93204.19;2072010;69;20243;-74
2022/07/07 04:57:40;;;;;;;6.25;4.10;;;;;;;16.34;63.65;93209.03;2071930;69;20137;-75
2022/07/07 05:00:06;;;;;;;7.03;3.80;;;;;;;16.57;62.85;93210.81;2072033;69;20207;-74
2022/07/07 05:02:32;;;;;;;5.18;4.00;;;;;;;16.50;63.44;93212.66;2071969;69;20183;-75
2022/07/07 05:04:58;;;;;;;10.88;5.70;;;;;;;16.00;65.37;93218.09;2071921;69;20502;-74
2022/07/07 05:07:23;;;;;;;10.65;5.85;;;;;;;15.90;65.92;93216.88;2071926;69;20243;-74
2022/07/07 05:09:49;;;;;;;9.77;6.15;;;;;;;16.16;65.11;93214.56;2071829;69;20241;-74
2022/07/07 05:12:15;;;;;;;8.55;5.43;;;;;;;16.35;64.79;93216.19;2071521;69;20172;-73
2022/07/07 05:14:41;;;;;;;8.45;5.47;;;;;;;16.21;65.56;93213.38;2068398;69;20152;-74
2022/07/07 05:17:07;;;;;;;6.18;4.40;;;;;;;16.47;62.45;93208.25;2071837;69;20144;-72
2022/07/07 05:19:32;;;;;;;8.35;4.30;;;;;;;16.55;61.68;93200.09;2068401;69;20160;-76
2022/07/07 05:21:58;;;;;;;6.63;4.75;;;;;;;15.54;67.23;93207.97;2072066;69;20152;-76
2022/07/07 05:24:24;;;;;;;9.05;4.80;;;;;;;16.09;65.59;93210.72;2072021;69;20152;-73
2022/07/07 05:26:49;;;;;;;5.40;4.32;;;;;;;16.25;65.21;93207.91;2071782;69;20517;-74
2022/07/07 05:29:15;;;;;;;7.88;4.28;;;;;;;16.39;65.09;93207.84;2071840;69;20157;-74
2022/07/07 05:31:41;;;;;;;7.38;4.43;;;;;;;16.47;64.51;93199.72;2071497;69;20160;-75
2022/07/07 05:34:07;;;;;;;6.47;4.38;;;;;;;16.51;64.50;93199.91;2071875;69;20163;-75
2022/07/07 05:36:34;;;;;;;5.50;4.18;;;;;;;16.64;63.05;93196.25;2071759;69;20589;-75
2022/07/07 05:39:00;;;;;;;4.82;4.18;;;;;;;16.57;64.93;93202.28;2069293;69;20159;-74
2022/07/07 05:41:27;;;;;;;4.65;3.90;;;;;;;16.53;64.58;93208.50;2071864;69;20138;-76
2022/07/07 05:43:55;;;;;;;5.90;3.50;;;;;;;16.83;62.64;93206.38;2071960;69;20247;-75
2022/07/07 05:46:22;;;;;;;4.47;4.07;;;;;;;16.92;62.67;93204.66;2070067;69;20149;-75
2022/07/07 05:48:47;;;;;;;6.72;4.07;;;;;;;16.95;63.99;93209.78;2071937;69;20132;-74
2022/07/07 05:51:13;;;;;;;6.60;3.78;;;;;;;17.18;62.92;93202.22;2071930;69;20500;-75
2022/07/07 05:53:38;;;;;;;6.97;4.78;;;;;;;16.81;64.29;93200.59;2066740;69;20144;-75
2022/07/07 05:56:04;;;;;;;5.10;4.60;;;;;;;17.31;62.93;93200.66;2069038;69;20619;-75
2022/07/07 05:58:31;;;;;;;11.68;4.82;;;;;;;17.31;63.45;93206.34;2068551;69;20177;-75
2022/07/07 06:00:56;;;;;;;8.63;4.75;;;;;;;17.30;63.04;93197.09;2069045;69;20144;-74
2022/07/07 06:03:22;;;;;;;8.75;4.80;;;;;;;17.53;62.21;93184.56;2071784;69;20167;-75
2022/07/07 06:05:48;;;;;;;10.45;4.43;;;;;;;17.73;60.98;93190.38;2071782;69;20131;-75
2022/07/07 06:08:14;;;;;;;9.38;4.22;;;;;;;17.74;62.20;93198.31;2071711;69;20155;-75
2022/07/07 06:10:39;;;;;;;5.88;4.13;;;;;;;17.90;60.92;93203.22;2071675;69;20137;-76
2022/07/07 06:13:05;;;;;;;5.57;4.30;;;;;;;17.97;60.73;93208.50;2071611;69;20608;-74
2022/07/07 06:15:35;;;;;;;5.43;4.10;;;;;;;18.07;61.32;93198.91;2071795;69;20159;-74
2022/07/07 06:18:04;;;;;;;6.78;3.97;;;;;;;18.07;60.62;93198.91;2065712;69;20212;-73
2022/07/07 06:20:30;;;;;;;4.75;3.90;;;;;;;18.31;58.98;93190.63;2068337;69;20244;-74
2022/07/07 06:22:57;;;;;;;5.28;4.20;;;;;;;18.47;58.24;93186.31;2070236;69;20204;-74
2022/07/07 06:25:23;;;;;;;8.73;4.00;;;;;;;18.64;56.63;93181.22;2071712;69;20176;-73
2022/07/07 06:27:49;;;;;;;7.10;4.40;;;;;;;18.69;57.33;93183.63;2071664;69;20147;-73
2022/07/07 06:30:14;;;;;;;5.20;4.00;;;;;;;18.83;56.77;93171.25;2071856;69;20144;-73
2022/07/07 06:32:40;;;;;;;5.85;3.90;;;;;;;18.91;56.69;93174.41;2071740;69;20171;-73
2022/07/07 06:35:12;;;;;;;4.20;3.80;;;;;;;19.07;55.10;93165.75;2069709;69;20583;-74
2022/07/07 06:37:38;;;;;;;6.45;3.83;;;;;;;19.27;56.41;93172.91;2068424;69;20585;-73
2022/07/07 06:40:04;;;;;;;7.85;3.88;;;;;;;19.35;57.11;93169.63;2068462;69;20149;-74
2022/07/07 06:42:30;;;;;;;6.32;3.90;;;;;;;19.49;55.39;93172.25;2071086;69;20144;-73
2022/07/07 06:45:04;;;;;;;4.90;3.72;;;;;;;19.45;54.86;93174.97;2066990;69;20176;-74
2022/07/07 06:47:30;;;;;;;5.30;3.83;;;;;;;19.32;54.22;93165.22;2068437;69;20156;-75
2022/07/07 06:49:56;;;;;;;7.85;3.92;;;;;;;19.22;56.05;93167.72;2068473;69;20137;-74
2022/07/07 06:52:22;;;;;;;5.95;4.00;;;;;;;19.12;55.01;93170.22;2071576;69;20179;-75
2022/07/07 06:54:47;;;;;;;4.88;3.72;;;;;;;19.54;55.00;93160.31;2071830;69;20675;-76
2022/07/07 06:57:15;;;;;;;4.18;3.40;;;;;;;19.63;54.89;93161.34;2070382;69;20217;-77
2022/07/07 06:59:40;;;;;;;5.63;3.80;;;;;;;19.72;54.06;93168.81;2068452;69;20137;-76
2022/07/07 07:02:07;;;;;;;5.10;3.78;;;;;;;19.86;53.91;93168.56;2069446;69;20231;-75
2022/07/07 07:04:33;;;;;;;6.00;3.45;;;;;;;20.04;54.24;93168.44;2068389;69;20144;-74
2022/07/07 07:06:58;;;;;;;5.43;3.60;;;;;;;19.89;53.17;93163.66;2071502;69;20167;-77
2022/07/07 07:09:24;;;;;;;4.22;3.83;;;;;;;19.63;54.45;93169.19;2067541;69;20152;-76
2022/07/07 07:11:50;;;;;;;5.30;3.70;;;;;;;19.89;53.60;93177.94;2071438;69;20152;-75
2022/07/07 07:14:16;;;;;;;6.28;3.83;;;;;;;20.28;55.02;93174.22;2071635;69;20155;-75
2022/07/07 07:16:42;;;;;;;4.45;3.70;;;;;;;20.46;54.53;93171.19;2071824;69;20140;-73
2022/07/07 07:19:11;;;;;;;7.65;3.90;;;;;;;20.56;53.25;93177.25;2071780;69;20608;-75
2022/07/07 07:21:36;;;;;;;5.22;3.60;;;;;;;20.67;52.18;93176.19;2071901;69;20168;-74
2022/07/07 07:24:02;;;;;;;5.28;4.00;;;;;;;20.31;51.78;93164.31;2071710;69;20187;-75
2022/07/07 07:26:28;;;;;;;6.18;3.95;;;;;;;20.09;52.00;93175.75;2071726;69;20646;-76
2022/07/07 07:28:53;;;;;;;4.03;3.65;;;;;;;20.37;51.87;93163.75;2071833;69;20151;-76
2022/07/07 07:31:19;;;;;;;4.20;3.80;;;;;;;20.01;52.39;93161.19;2071667;69;20132;-74
2022/07/07 07:33:45;;;;;;;6.47;4.18;;;;;;;20.09;52.49;93152.16;2071663;69;20192;-74
2022/07/07 07:36:10;;;;;;;4.60;3.90;;;;;;;20.61;51.32;93144.53;2071373;69;20183;-74
2022/07/07 07:38:37;;;;;;;6.10;3.90;;;;;;;20.59;51.17;93140.88;2071651;69;20239;-73
2022/07/07 07:41:08;;;;;;;5.25;3.95;;;;;;;20.15;50.73;93133.06;2071796;69;20200;-72
2022/07/07 07:43:34;;;;;;;5.10;3.90;;;;;;;20.28;51.92;93137.03;2071782;69;20150;-74
2022/07/07 07:46:00;;;;;;;6.32;3.90;;;;;;;20.69;51.30;93139.06;2071483;69;20163;-75
2022/07/07 07:48:26;;;;;;;3.80;3.40;;;;;;;21.15;51.13;93141.81;2071002;69;20600;-74
2022/07/07 07:50:51;;;;;;;6.20;3.90;;;;;;;21.24;50.18;93146.38;2071276;69;20167;-73
2022/07/07 07:53:17;;;;;;;4.45;3.50;;;;;;;21.33;49.99;93141.63;2070184;69;20156;-74
2022/07/07 07:55:44;;;;;;;3.97;3.58;;;;;;;21.38;49.63;93139.63;2070065;69;20605;-74
2022/07/07 07:58:10;;;;;;;5.20;3.47;;;;;;;21.56;49.05;93142.97;2067110;69;20136;-74
2022/07/07 08:00:36;;;;;;;4.53;3.70;;;;;;;21.20;49.53;93145.53;2071421;69;20204;-74
2022/07/07 08:03:02;;;;;;;4.88;3.70;;;;;;;21.16;50.21;93134.69;2071334;69;20252;-74
2022/07/07 08:05:28;;;;;;;4.72;3.60;;;;;;;21.45;49.35;93138.38;2070923;69;20192;-76
2022/07/07 08:07:54;;;;;;;5.68;3.60;;;;;;;21.48;48.38;93134.16;2070365;69;20263;-73
2022/07/07 08:10:19;;;;;;;6.07;3.45;;;;;;;21.60;49.08;93140.22;2071594;69;20604;-73
2022/07/07 08:12:47;;;;;;;6.65;3.60;;;;;;;21.63;48.73;93135.28;2066879;69;20599;-74
2022/07/07 08:15:14;;;;;;;5.28;3.60;;;;;;;21.46;48.98;93136.97;2071694;69;20187;-74
2022/07/07 08:17:40;;;;;;;4.10;3.70;;;;;;;20.48;51.97;93139.81;2070421;69;20153;-74
2022/07/07 08:20:07;;;;;;;5.70;4.05;;;;;;;21.06;50.48;93138.00;2070263;69;20160;-74
2022/07/07 08:22:35;;;;;;;6.47;4.32;;;;;;;20.94;50.78;93134.06;2069811;69;20140;-75
2022/07/07 08:25:01;;;;;;;12.15;4.22;;;;;;;21.02;50.23;93140.72;2073271;69;20141;-74
2022/07/07 08:27:26;;;;;;;7.25;4.18;;;;;;;21.44;50.04;93137.66;2067154;69;20149;-74
2022/07/07 08:29:52;;;;;;;7.65;4.47;;;;;;;21.67;50.05;93130.41;2071891;69;20334;-75
2022/07/07 08:32:18;;;;;;;7.28;4.05;;;;;;;21.65;49.78;93126.75;2069509;69;20227;-75
2022/07/07 08:34:44;;;;;;;6.80;4.28;;;;;;;21.57;48.22;93116.50;2070998;69;20252;-76
2022/07/07 08:37:10;;;;;;;6.40;4.20;;;;;;;21.50;49.58;93111.31;2070650;69;20144;-75
2022/07/07 08:39:36;;;;;;;7.63;4.10;;;;;;;21.15;49.90;93106.75;2071426;69;20184;-75
2022/07/07 08:42:02;;;;;;;7.43;4.20;;;;;;;21.54;49.41;93100.69;2071938;69;20222;-76
2022/07/07 08:44:28;;;;;;;4.95;4.20;;;;;;;21.90;49.00;93103.03;2070887;69;20168;-75
2022/07/07 08:46:54;;;;;;;9.35;4.20;;;;;;;21.83;47.88;93098.56;2071959;69;20148;-74
2022/07/07 08:49:20;;;;;;;4.45;3.92;;;;;;;21.81;48.93;93089.91;2071803;69;20140;-75
2022/07/07 08:51:46;;;;;;;7.97;4.28;;;;;;;21.71;48.04;93086.78;2071639;69;20148;-75
2022/07/07 08:54:15;;;;;;;5.93;4.00;;;;;;;21.94;48.27;93080.19;2072020;69;20264;-74
2022/07/07 08:56:41;;;;;;;177.25;46.17;;;;;;;22.48;48.24;93082.19;2071747;69;20200;-75
2022/07/07 08:59:09;;;;;;;7.57;4.30;;;;;;;22.61;46.98;93083.19;2071858;69;20241;-75
2022/07/07 09:01:36;;;;;;;6.90;4.00;;;;;;;22.58;46.76;93076.69;2069307;69;20137;-75
2022/07/07 09:04:02;;;;;;;46.83;23.52;;;;;;;22.84;47.34;93071.50;2071907;69;20156;-75
2022/07/07 09:06:29;;;;;;;7.30;4.40;;;;;;;22.92;46.46;93076.00;2071865;69;20144;-77
2022/07/07 09:08:55;;;;;;;5.18;4.15;;;;;;;23.55;46.83;93083.72;2071859;69;20165;-77
2022/07/07 09:11:32;;;;;;;5.78;3.90;;;;;;;23.57;45.45;93083.75;2072130;69;20610;-76
2022/07/07 09:14:08;;;;;;;5.82;4.22;;;;;;;23.36;47.83;93081.91;2071113;69;20156;-76
2022/07/07 09:16:36;;;;;;;7.35;4.80;;;;;;;23.88;47.07;93074.97;2071659;69;20136;-76
2022/07/07 09:19:01;;;;;;;6.03;4.25;;;;;;;23.65;45.50;93071.69;2068209;69;20156;-76
2022/07/07 09:21:32;;;;;;;7.60;3.85;;;;;;;23.10;46.70;93064.91;2068311;69;20235;-76
2022/07/07 09:24:00;;;;;;;5.90;4.10;;;;;;;22.41;47.46;93072.75;2070977;69;20180;-76
2022/07/07 09:26:43;;;;;;;8.32;4.20;;;;;;;22.87;46.50;93068.69;2071255;69;20156;-75
2022/07/07 09:29:11;;;;;;;5.32;3.65;;;;;;;23.25;45.95;93080.25;2071605;69;20148;-74
2022/07/07 09:31:53;;;;;;;7.25;4.00;;;;;;;23.08;45.86;93085.66;2071259;69;20214;-76
2022/07/07 09:34:20;;;;;;;8.45;4.22;;;;;;;22.93;46.66;93083.19;2071735;69;20498;-75
2022/07/07 09:39:40;;;;;;;6.38;3.78;;;;;;;22.67;46.37;93084.06;2071188;69;20156;-75
2022/07/07 09:42:25;;;;;;;7.47;3.90;;;;;;;22.75;46.94;93083.50;2070006;69;20601;-74
2022/07/07 09:45:01;;;;;;;5.72;3.80;;;;;;;23.21;46.25;93085.91;2071211;69;20191;-74
2022/07/07 09:47:27;;;;;;;5.38;4.28;;;;;;;22.62;47.19;93082.50;2071919;69;20151;-75
2022/07/07 09:50:06;;;;;;;8.20;4.07;;;;;;;22.69;47.99;93095.59;2071378;69;20164;-75
2022/07/07 09:52:34;;;;;;;4.80;3.85;;;;;;;23.70;48.44;93090.47;2071803;69;20156;-75
2022/07/07 09:55:03;;;;;;;7.40;4.30;;;;;;;24.58;46.40;93084.00;2068438;69;20633;-75
2022/07/07 09:57:29;;;;;;;6.88;3.92;;;;;;;25.21;44.61;93092.09;2070943;69;20205;-77
2022/07/07 09:59:55;;;;;;;3.70;3.40;;;;;;;25.27;44.02;93095.03;2071498;69;20252;-75
2022/07/07 10:02:22;;;;;;;5.75;3.70;;;;;;;24.62;43.50;93094.88;2071616;69;20128;-76
2022/07/07 10:04:50;;;;;;;5.95;3.88;;;;;;;25.55;44.41;93089.59;2071657;69;20148;-76
2022/07/07 10:07:18;;;;;;;5.55;3.70;;;;;;;25.66;42.84;93101.22;2071555;69;20132;-76
2022/07/07 10:09:44;;;;;;;7.35;3.55;;;;;;;24.73;42.38;93090.69;2071628;69;20156;-76
2022/07/07 10:12:13;;;;;;;3.80;3.30;;;;;;;24.89;42.38;93083.72;2071764;69;20144;-75
2022/07/07 10:14:43;;;;;;;4.53;3.60;;;;;;;25.30;42.07;93087.88;2071907;69;20152;-75
2022/07/07 10:17:10;;;;;;;5.25;3.70;;;;;;;25.17;42.08;93092.03;2071763;69;20216;-76
2022/07/07 10:19:36;;;;;;;5.28;3.55;;;;;;;24.67;43.31;93102.13;2071875;69;20144;-76
2022/07/07 10:22:03;;;;;;;8.93;4.15;;;;;;;24.22;44.46;93092.06;2071895;69;20245;-76
2022/07/07 10:24:32;;;;;;;4.75;3.80;;;;;;;23.48;46.02;93093.63;2071888;69;20145;-76
2022/07/07 10:27:00;;;;;;;4.43;3.97;;;;;;;22.82;48.27;93090.84;2071825;69;20209;-75
2022/07/07 10:29:51;;;;;;;4.18;3.78;;;;;;;23.56;46.82;93090.19;2071891;69;20235;-75
2022/07/07 10:32:23;;;;;;;4.65;4.22;;;;;;;23.44;47.67;93102.16;2071778;69;20590;-75
2022/07/07 10:34:51;;;;;;;5.65;4.22;;;;;;;23.66;47.45;93089.66;2071832;69;20144;-75
2022/07/07 10:37:18;;;;;;;5.30;4.20;;;;;;;23.59;46.85;93098.16;2071691;69;20211;-75
2022/07/07 10:39:48;;;;;;;5.05;4.00;;;;;;;23.56;47.03;93096.66;2071843;69;20594;-75
2022/07/07 10:42:17;;;;;;;5.28;4.47;;;;;;;23.06;47.23;93099.25;2072022;69;20147;-75
2022/07/07 10:44:51;;;;;;;5.68;4.40;;;;;;;23.02;47.64;93102.06;2071794;69;20590;-75
2022/07/07 10:47:16;;;;;;;6.68;4.60;;;;;;;23.27;47.07;93098.25;2071945;69;20666;-75
2022/07/07 10:49:48;;;;;;;5.95;4.30;;;;;;;23.12;48.44;93108.00;2071812;69;20255;-75
2022/07/07 10:52:14;;;;;;;5.35;3.50;;;;;;;23.54;47.68;93095.88;2071692;69;20175;-76
2022/07/07 10:55:12;;;;;;;7.13;4.38;;;;;;;22.64;49.26;93105.53;2071935;69;20221;-75
2022/07/07 10:57:47;;;;;;;5.00;4.50;;;;;;;22.23;50.87;93106.72;2054317;70;20247;-75
2022/07/07 11:00:25;;;;;;;6.05;4.65;;;;;;;22.78;49.17;93105.84;2053014;70;20220;-74
2022/07/07 11:03:13;;;;;;;9.95;4.70;;;;;;;22.99;49.90;93109.88;2053130;70;20158;-74
2022/07/07 11:05:44;;;;;;;4.97;4.45;;;;;;;23.19;49.03;93109.59;2053553;70;20212;-73
2022/07/07 11:08:12;;;;;;;5.00;4.47;;;;;;;23.12;48.78;93115.88;2053531;69;20705;-75
2022/07/07 11:10:42;;;;;;;5.63;4.38;;;;;;;23.36;49.58;93113.50;2053680;70;20149;-75
2022/07/07 11:13:16;;;;;;;6.72;5.05;;;;;;;23.37;48.96;93114.22;2053326;70;20755;-81
2022/07/07 11:15:46;;;;;;;4.83;4.40;;;;;;;23.32;49.95;93117.03;2051047;70;20724;-77
2022/07/07 11:18:19;;;;;;;5.95;4.50;;;;;;;23.19;51.55;93112.47;2053269;70;20255;-74
2022/07/07 11:20:53;;;;;;;6.05;4.38;;;;;;;23.20;49.39;93105.28;2053411;70;20218;-72
2022/07/07 11:23:19;;;;;;;7.85;4.30;;;;;;;23.32;49.73;93102.66;2053394;70;20162;-73
2022/07/07 11:25:46;;;;;;;7.20;4.60;;;;;;;23.51;49.29;93097.28;2053733;70;20144;-72
2022/07/07 11:28:12;;;;;;;6.75;4.72;;;;;;;22.71;50.15;93100.63;2053650;70;20209;-72
2022/07/07 11:30:41;;;;;;;5.90;4.32;;;;;;;23.08;50.13;93107.91;2053580;70;20158;-72
2022/07/07 11:33:09;;;;;;;6.60;4.15;;;;;;;22.91;49.37;93115.47;2061499;69;20144;-74
2022/07/07 11:35:37;;;;;;;5.35;4.20;;;;;;;22.89;48.75;93111.78;2068180;69;20618;-73
2022/07/07 11:38:05;;;;;;;5.68;4.03;;;;;;;22.70;49.60;93107.78;2071141;69;20179;-73